sensor_id;sensor_type;location;lat;lon;timestamp;temperature;humidity
5792;DHT22;2922;53.482;10.006;2024-03-17T00:00:30;4.90;99.90
5792;DHT22;2922;53.482;10.006;2024-03-17T00:02:55;4.90;99.90
5792;DHT22;2922;53.482;10.006;2024-03-17T00:05:22;4.90;99.90
5792;DHT22;2922;53.482;10.006;2024-03-17T00:07:47;4.80;99.90
5792;DHT22;2922;53.482;10.006;2024-03-17T00:10:14;4.90;99.90
5792;DHT22;2922;53.482;10.006;2024-03-17T00:12:40;4.80;99.90
5792;DHT22;2922;53.482;10.006;2024-03-17T00:15:06;4.80;99.90
5792;DHT22;2922;53.482;10.006;2024-03-17T00:17:32;4.80;99.90
5792;DHT22;2922;53.482;10.006;2024-03-17T00:19:59;4.80;99.90
5792;DHT22;2922;53.482;10.006;2024-03-17T00:22:27;4.80;99.90
5792;DHT22;2922;53.482;10.006;2024-03-17T00:24:53;4.80;99.90
5792;DHT22;2922;53.482;10.006;2024-03-17T00:27:18;4.80;99.90
5792;DHT22;2922;53.482;10.006;2024-03-17T00:29:44;4.80;99.90
5792;DHT22;2922;53.482;10.006;2024-03-17T00:32:10;4.70;99.90
5792;DHT22;2922;53.482;10.006;2024-03-17T00:34:37;4.70;99.90
5792;DHT22;2922;53.482;10.006;2024-03-17T00:37:02;4.70;99.90
5792;DHT22;2922;53.482;10.006;2024-03-17T00:39:28;4.70;99.90
5792;DHT22;2922;53.482;10.006;2024-03-17T00:41:54;4.60;99.90
5792;DHT22;2922;53.482;10.006;2024-03-17T00:44:19;4.60;99.90
5792;DHT22;2922;53.482;10.006;2024-03-17T00:46:45;4.60;99.90
5792;DHT22;2922;53.482;10.006;2024-03-17T00:49:12;4.60;99.90
5792;DHT22;2922;53.482;10.006;2024-03-17T00:51:37;4.60;99.90
5792;DHT22;2922;53.482;10.006;2024-03-17T00:54:03;4.60;99.90
5792;DHT22;2922;53.482;10.006;2024-03-17T00:56:28;4.50;99.90
5792;DHT22;2922;53.482;10.006;2024-03-17T00:58:54;4.60;99.90
5792;DHT22;2922;53.482;10.006;2024-03-17T01:01:19;4.60;99.90
5792;DHT22;2922;53.482;10.006;2024-03-17T01:03:45;4.60;99.90
5792;DHT22;2922;53.482;10.006;2024-03-17T01:06:11;4.60;99.90
5792;DHT22;2922;53.482;10.006;2024-03-17T01:08:37;4.60;99.90
5792;DHT22;2922;53.482;10.006;2024-03-17T01:11:02;4.60;99.90
5792;DHT22;2922;53.482;10.006;2024-03-17T01:13:28;4.60;99.90
5792;DHT22;2922;53.482;10.006;2024-03-17T01:15:54;4.60;99.90
5792;DHT22;2922;53.482;10.006;2024-03-17T01:18:19;4.60;99.90
5792;DHT22;2922;53.482;10.006;2024-03-17T01:20:45;4.60;99.90
5792;DHT22;2922;53.482;10.006;2024-03-17T01:23:11;4.50;99.90
5792;DHT22;2922;53.482;10.006;2024-03-17T01:25:37;4.50;99.90
5792;DHT22;2922;53.482;10.006;2024-03-17T01:28:05;4.50;99.90
5792;DHT22;2922;53.482;10.006;2024-03-17T01:30:34;4.50;99.90
5792;DHT22;2922;53.482;10.006;2024-03-17T01:33:00;4.50;99.90
5792;DHT22;2922;53.482;10.006;2024-03-17T01:35:26;4.50;99.90
5792;DHT22;2922;53.482;10.006;2024-03-17T01:37:51;4.50;99.90
5792;DHT22;2922;53.482;10.006;2024-03-17T01:40:17;4.50;99.90
5792;DHT22;2922;53.482;10.006;2024-03-17T01:42:42;4.40;99.90
5792;DHT22;2922;53.482;10.006;2024-03-17T01:45:27;4.40;99.90
5792;DHT22;2922;53.482;10.006;2024-03-17T01:47:54;4.40;99.90
5792;DHT22;2922;53.482;10.006;2024-03-17T01:50:23;4.40;99.90
5792;DHT22;2922;53.482;10.006;2024-03-17T01:52:52;4.40;99.90
5792;DHT22;2922;53.482;10.006;2024-03-17T01:55:18;4.40;99.90
5792;DHT22;2922;53.482;10.006;2024-03-17T01:57:44;4.40;99.90
5792;DHT22;2922;53.482;10.006;2024-03-17T02:00:10;4.40;99.90
5792;DHT22;2922;53.482;10.006;2024-03-17T02:02:37;4.40;99.90
5792;DHT22;2922;53.482;10.006;2024-03-17T02:05:03;4.40;99.90
5792;DHT22;2922;53.482;10.006;2024-03-17T02:07:29;4.30;99.90
5792;DHT22;2922;53.482;10.006;2024-03-17T02:09:56;4.30;99.90
5792;DHT22;2922;53.482;10.006;2024-03-17T02:12:22;4.30;99.90
5792;DHT22;2922;53.482;10.006;2024-03-17T02:14:48;4.30;99.90
5792;DHT22;2922;53.482;10.006;2024-03-17T02:17:13;4.30;99.90
5792;DHT22;2922;53.482;10.006;2024-03-17T02:19:39;4.30;99.90
5792;DHT22;2922;53.482;10.006;2024-03-17T02:22:14;4.30;99.90
5792;DHT22;2922;53.482;10.006;2024-03-17T02:24:41;4.30;99.90
5792;DHT22;2922;53.482;10.006;2024-03-17T02:27:06;4.30;99.90
5792;DHT22;2922;53.482;10.006;2024-03-17T02:29:32;4.20;99.90
5792;DHT22;2922;53.482;10.006;2024-03-17T02:31:57;4.20;99.90
5792;DHT22;2922;53.482;10.006;2024-03-17T02:34:23;4.20;99.90
5792;DHT22;2922;53.482;10.006;2024-03-17T02:36:49;4.20;99.90
5792;DHT22;2922;53.482;10.006;2024-03-17T02:39:14;4.20;99.90
5792;DHT22;2922;53.482;10.006;2024-03-17T02:41:58;4.20;99.90
5792;DHT22;2922;53.482;10.006;2024-03-17T02:44:24;4.20;99.90
5792;DHT22;2922;53.482;10.006;2024-03-17T02:46:50;4.30;99.90
5792;DHT22;2922;53.482;10.006;2024-03-17T02:49:15;4.30;99.90
5792;DHT22;2922;53.482;10.006;2024-03-17T02:51:43;4.30;99.90
5792;DHT22;2922;53.482;10.006;2024-03-17T02:54:09;4.30;99.90
5792;DHT22;2922;53.482;10.006;2024-03-17T02:56:34;4.30;99.90
5792;DHT22;2922;53.482;10.006;2024-03-17T02:59:00;4.30;99.90
5792;DHT22;2922;53.482;10.006;2024-03-17T03:01:25;4.20;99.90
5792;DHT22;2922;53.482;10.006;2024-03-17T03:03:51;4.20;99.90
5792;DHT22;2922;53.482;10.006;2024-03-17T03:06:17;4.10;99.90
5792;DHT22;2922;53.482;10.006;2024-03-17T03:08:45;4.10;99.90
5792;DHT22;2922;53.482;10.006;2024-03-17T03:11:15;4.10;99.90
5792;DHT22;2922;53.482;10.006;2024-03-17T03:13:42;4.00;99.90
5792;DHT22;2922;53.482;10.006;2024-03-17T03:16:10;4.00;99.90
5792;DHT22;2922;53.482;10.006;2024-03-17T03:18:36;4.00;99.90
5792;DHT22;2922;53.482;10.006;2024-03-17T03:21:02;3.90;99.90
5792;DHT22;2922;53.482;10.006;2024-03-17T03:23:28;3.90;99.90
5792;DHT22;2922;53.482;10.006;2024-03-17T03:26:00;3.80;99.90
5792;DHT22;2922;53.482;10.006;2024-03-17T03:28:28;3.80;99.90
5792;DHT22;2922;53.482;10.006;2024-03-17T03:30:54;3.70;99.90
5792;DHT22;2922;53.482;10.006;2024-03-17T03:33:20;3.70;99.90
5792;DHT22;2922;53.482;10.006;2024-03-17T03:35:46;3.70;99.90
5792;DHT22;2922;53.482;10.006;2024-03-17T03:38:12;3.60;99.90
5792;DHT22;2922;53.482;10.006;2024-03-17T03:40:42;3.60;99.90
5792;DHT22;2922;53.482;10.006;2024-03-17T03:43:09;3.60;99.90
5792;DHT22;2922;53.482;10.006;2024-03-17T03:45:35;3.50;99.90
5792;DHT22;2922;53.482;10.006;2024-03-17T03:48:01;3.50;99.90
5792;DHT22;2922;53.482;10.006;2024-03-17T03:50:28;3.50;99.90
5792;DHT22;2922;53.482;10.006;2024-03-17T03:52:54;3.40;99.90
5792;DHT22;2922;53.482;10.006;2024-03-17T03:55:19;3.30;99.90
5792;DHT22;2922;53.482;10.006;2024-03-17T03:57:45;3.30;99.90
5792;DHT22;2922;53.482;10.006;2024-03-17T04:00:16;3.30;99.90
5792;DHT22;2922;53.482;10.006;2024-03-17T04:02:47;3.20;99.90
5792;DHT22;2922;53.482;10.006;2024-03-17T04:05:12;3.20;99.90
5792;DHT22;2922;53.482;10.006;2024-03-17T04:07:38;3.20;99.90
5792;DHT22;2922;53.482;10.006;2024-03-17T04:10:05;3.10;99.90
5792;DHT22;2922;53.482;10.006;2024-03-17T04:12:31;3.10;99.90
5792;DHT22;2922;53.482;10.006;2024-03-17T04:14:58;3.00;99.90
5792;DHT22;2922;53.482;10.006;2024-03-17T04:17:24;3.00;99.90
5792;DHT22;2922;53.482;10.006;2024-03-17T04:19:51;3.00;99.90
5792;DHT22;2922;53.482;10.006;2024-03-17T04:22:17;3.00;99.90
5792;DHT22;2922;53.482;10.006;2024-03-17T04:24:43;2.90;99.90
5792;DHT22;2922;53.482;10.006;2024-03-17T04:27:09;2.90;99.90
5792;DHT22;2922;53.482;10.006;2024-03-17T04:29:35;2.90;99.90
5792;DHT22;2922;53.482;10.006;2024-03-17T04:32:01;2.90;99.90
5792;DHT22;2922;53.482;10.006;2024-03-17T04:34:27;2.90;99.90
5792;DHT22;2922;53.482;10.006;2024-03-17T04:36:53;2.90;99.90
5792;DHT22;2922;53.482;10.006;2024-03-17T04:39:19;2.90;99.90
5792;DHT22;2922;53.482;10.006;2024-03-17T04:41:45;2.90;99.90
5792;DHT22;2922;53.482;10.006;2024-03-17T04:44:11;2.90;99.90
5792;DHT22;2922;53.482;10.006;2024-03-17T04:46:36;2.90;99.90
5792;DHT22;2922;53.482;10.006;2024-03-17T04:49:02;3.00;99.90
5792;DHT22;2922;53.482;10.006;2024-03-17T04:51:29;3.00;99.90
5792;DHT22;2922;53.482;10.006;2024-03-17T04:53:54;3.00;99.90
5792;DHT22;2922;53.482;10.006;2024-03-17T04:56:21;3.00;99.90
5792;DHT22;2922;53.482;10.006;2024-03-17T04:58:46;3.10;99.90
5792;DHT22;2922;53.482;10.006;2024-03-17T05:01:12;3.10;99.90
5792;DHT22;2922;53.482;10.006;2024-03-17T05:03:38;3.10;99.90
5792;DHT22;2922;53.482;10.006;2024-03-17T05:06:05;3.20;99.90
5792;DHT22;2922;53.482;10.006;2024-03-17T05:08:31;3.20;99.90
5792;DHT22;2922;53.482;10.006;2024-03-17T05:10:58;3.30;99.90
5792;DHT22;2922;53.482;10.006;2024-03-17T05:13:26;3.30;99.90
5792;DHT22;2922;53.482;10.006;2024-03-17T05:15:52;3.30;99.90
5792;DHT22;2922;53.482;10.006;2024-03-17T05:18:17;3.30;99.90
5792;DHT22;2922;53.482;10.006;2024-03-17T05:20:43;3.30;99.90
5792;DHT22;2922;53.482;10.006;2024-03-17T05:23:08;3.40;99.90
5792;DHT22;2922;53.482;10.006;2024-03-17T05:25:36;3.40;99.90
5792;DHT22;2922;53.482;10.006;2024-03-17T05:28:02;3.40;99.90
5792;DHT22;2922;53.482;10.006;2024-03-17T05:30:28;3.40;99.90
5792;DHT22;2922;53.482;10.006;2024-03-17T05:32:54;3.40;99.90
5792;DHT22;2922;53.482;10.006;2024-03-17T05:35:20;3.40;99.90
5792;DHT22;2922;53.482;10.006;2024-03-17T05:37:45;3.40;99.90
5792;DHT22;2922;53.482;10.006;2024-03-17T05:40:11;3.40;99.90
5792;DHT22;2922;53.482;10.006;2024-03-17T05:42:37;3.40;99.90
5792;DHT22;2922;53.482;10.006;2024-03-17T05:45:03;3.40;99.90
5792;DHT22;2922;53.482;10.006;2024-03-17T05:47:29;3.40;99.90
5792;DHT22;2922;53.482;10.006;2024-03-17T05:49:55;3.40;99.90
5792;DHT22;2922;53.482;10.006;2024-03-17T05:52:21;3.50;99.90
5792;DHT22;2922;53.482;10.006;2024-03-17T05:54:47;3.50;99.90
5792;DHT22;2922;53.482;10.006;2024-03-17T05:57:12;3.50;99.90
5792;DHT22;2922;53.482;10.006;2024-03-17T05:59:39;3.50;99.90
5792;DHT22;2922;53.482;10.006;2024-03-17T06:02:05;3.50;99.90
5792;DHT22;2922;53.482;10.006;2024-03-17T06:04:30;3.50;99.90
5792;DHT22;2922;53.482;10.006;2024-03-17T06:06:56;3.40;99.90
5792;DHT22;2922;53.482;10.006;2024-03-17T06:09:21;3.50;99.90
5792;DHT22;2922;53.482;10.006;2024-03-17T06:11:48;3.50;99.90
5792;DHT22;2922;53.482;10.006;2024-03-17T06:14:13;3.50;99.90
5792;DHT22;2922;53.482;10.006;2024-03-17T06:16:39;3.50;99.90
5792;DHT22;2922;53.482;10.006;2024-03-17T06:19:05;3.50;99.90
5792;DHT22;2922;53.482;10.006;2024-03-17T06:21:32;3.50;99.90
5792;DHT22;2922;53.482;10.006;2024-03-17T06:23:57;3.50;99.90
5792;DHT22;2922;53.482;10.006;2024-03-17T06:26:23;3.60;99.90
5792;DHT22;2922;53.482;10.006;2024-03-17T06:28:49;3.60;99.90
5792;DHT22;2922;53.482;10.006;2024-03-17T06:31:14;3.70;99.90
5792;DHT22;2922;53.482;10.006;2024-03-17T06:33:41;3.70;99.90
5792;DHT22;2922;53.482;10.006;2024-03-17T06:36:07;3.80;99.90
5792;DHT22;2922;53.482;10.006;2024-03-17T06:38:33;3.80;99.90
5792;DHT22;2922;53.482;10.006;2024-03-17T06:40:58;3.90;99.90
5792;DHT22;2922;53.482;10.006;2024-03-17T06:43:24;3.90;99.90
5792;DHT22;2922;53.482;10.006;2024-03-17T06:46:00;4.00;99.90
5792;DHT22;2922;53.482;10.006;2024-03-17T06:48:26;4.10;99.90
5792;DHT22;2922;53.482;10.006;2024-03-17T06:50:53;4.10;99.90
5792;DHT22;2922;53.482;10.006;2024-03-17T06:53:23;4.20;99.90
5792;DHT22;2922;53.482;10.006;2024-03-17T06:55:55;4.30;99.90
5792;DHT22;2922;53.482;10.006;2024-03-17T06:58:22;4.30;99.90
5792;DHT22;2922;53.482;10.006;2024-03-17T07:00:58;4.40;99.90
5792;DHT22;2922;53.482;10.006;2024-03-17T07:03:26;4.50;99.90
5792;DHT22;2922;53.482;10.006;2024-03-17T07:05:55;4.50;99.90
5792;DHT22;2922;53.482;10.006;2024-03-17T07:08:22;4.60;99.90
5792;DHT22;2922;53.482;10.006;2024-03-17T07:11:04;4.80;99.90
5792;DHT22;2922;53.482;10.006;2024-03-17T07:13:32;4.90;99.90
5792;DHT22;2922;53.482;10.006;2024-03-17T07:15:59;5.00;99.90
5792;DHT22;2922;53.482;10.006;2024-03-17T07:18:26;5.10;99.90
5792;DHT22;2922;53.482;10.006;2024-03-17T07:20:53;5.20;99.90
5792;DHT22;2922;53.482;10.006;2024-03-17T07:23:18;5.20;99.90
5792;DHT22;2922;53.482;10.006;2024-03-17T07:25:54;5.30;99.90
5792;DHT22;2922;53.482;10.006;2024-03-17T07:28:20;5.50;99.90
5792;DHT22;2922;53.482;10.006;2024-03-17T07:30:53;5.60;99.90
5792;DHT22;2922;53.482;10.006;2024-03-17T07:33:20;5.70;99.90
5792;DHT22;2922;53.482;10.006;2024-03-17T07:35:52;5.80;99.90
5792;DHT22;2922;53.482;10.006;2024-03-17T07:38:19;5.80;99.90
5792;DHT22;2922;53.482;10.006;2024-03-17T07:40:45;5.90;99.90
5792;DHT22;2922;53.482;10.006;2024-03-17T07:43:20;6.00;99.90
5792;DHT22;2922;53.482;10.006;2024-03-17T07:45:45;6.10;99.90
5792;DHT22;2922;53.482;10.006;2024-03-17T07:48:11;6.30;99.90
5792;DHT22;2922;53.482;10.006;2024-03-17T07:50:37;6.50;99.90
5792;DHT22;2922;53.482;10.006;2024-03-17T07:53:03;6.70;99.90
5792;DHT22;2922;53.482;10.006;2024-03-17T07:55:28;6.80;99.90
5792;DHT22;2922;53.482;10.006;2024-03-17T07:57:55;6.80;99.90
5792;DHT22;2922;53.482;10.006;2024-03-17T08:00:21;7.00;99.90
5792;DHT22;2922;53.482;10.006;2024-03-17T08:02:47;7.10;99.90
5792;DHT22;2922;53.482;10.006;2024-03-17T08:05:13;7.10;99.90
5792;DHT22;2922;53.482;10.006;2024-03-17T08:07:39;7.30;99.90
5792;DHT22;2922;53.482;10.006;2024-03-17T08:10:07;7.40;99.90
5792;DHT22;2922;53.482;10.006;2024-03-17T08:12:33;7.50;99.90
5792;DHT22;2922;53.482;10.006;2024-03-17T08:14:58;7.50;99.90
5792;DHT22;2922;53.482;10.006;2024-03-17T08:17:25;7.60;99.90
5792;DHT22;2922;53.482;10.006;2024-03-17T08:19:50;7.50;99.90
5792;DHT22;2922;53.482;10.006;2024-03-17T08:22:17;7.50;99.90
5792;DHT22;2922;53.482;10.006;2024-03-17T08:24:42;7.30;99.90
5792;DHT22;2922;53.482;10.006;2024-03-17T08:27:08;7.20;99.90
5792;DHT22;2922;53.482;10.006;2024-03-17T08:29:34;7.10;99.90
5792;DHT22;2922;53.482;10.006;2024-03-17T08:32:00;7.40;99.90
5792;DHT22;2922;53.482;10.006;2024-03-17T08:34:25;7.60;99.90
5792;DHT22;2922;53.482;10.006;2024-03-17T08:36:51;7.90;99.90
5792;DHT22;2922;53.482;10.006;2024-03-17T08:39:16;8.30;99.90
5792;DHT22;2922;53.482;10.006;2024-03-17T08:41:42;8.40;99.90
5792;DHT22;2922;53.482;10.006;2024-03-17T08:44:09;8.40;99.90
5792;DHT22;2922;53.482;10.006;2024-03-17T08:46:35;8.50;99.90
5792;DHT22;2922;53.482;10.006;2024-03-17T08:49:00;8.70;99.90
5792;DHT22;2922;53.482;10.006;2024-03-17T08:51:26;8.80;99.90
5792;DHT22;2922;53.482;10.006;2024-03-17T08:53:53;9.10;99.90
5792;DHT22;2922;53.482;10.006;2024-03-17T08:56:18;9.30;99.90
5792;DHT22;2922;53.482;10.006;2024-03-17T08:58:45;9.60;99.90
5792;DHT22;2922;53.482;10.006;2024-03-17T09:01:14;9.70;99.90
5792;DHT22;2922;53.482;10.006;2024-03-17T09:03:40;9.90;99.90
5792;DHT22;2922;53.482;10.006;2024-03-17T09:06:16;10.10;99.90
5792;DHT22;2922;53.482;10.006;2024-03-17T09:08:42;10.10;99.90
5792;DHT22;2922;53.482;10.006;2024-03-17T09:11:17;10.30;99.90
5792;DHT22;2922;53.482;10.006;2024-03-17T09:13:42;10.60;99.90
5792;DHT22;2922;53.482;10.006;2024-03-17T09:16:08;10.70;99.90
5792;DHT22;2922;53.482;10.006;2024-03-17T09:18:36;10.90;99.90
5792;DHT22;2922;53.482;10.006;2024-03-17T09:21:07;11.10;99.90
5792;DHT22;2922;53.482;10.006;2024-03-17T09:23:33;11.00;99.90
5792;DHT22;2922;53.482;10.006;2024-03-17T09:26:04;11.20;99.90
5792;DHT22;2922;53.482;10.006;2024-03-17T09:28:31;11.30;99.90
5792;DHT22;2922;53.482;10.006;2024-03-17T09:30:57;11.40;99.90
5792;DHT22;2922;53.482;10.006;2024-03-17T09:33:24;11.40;99.90
5792;DHT22;2922;53.482;10.006;2024-03-17T09:35:58;11.40;99.90
5792;DHT22;2922;53.482;10.006;2024-03-17T09:38:24;11.40;99.90
5792;DHT22;2922;53.482;10.006;2024-03-17T09:40:50;11.60;99.90
5792;DHT22;2922;53.482;10.006;2024-03-17T09:43:19;11.80;99.90
5792;DHT22;2922;53.482;10.006;2024-03-17T09:45:45;12.00;99.90
5792;DHT22;2922;53.482;10.006;2024-03-17T09:48:14;12.00;99.90
5792;DHT22;2922;53.482;10.006;2024-03-17T09:50:41;11.90;99.90
5792;DHT22;2922;53.482;10.006;2024-03-17T09:53:13;11.90;99.90
5792;DHT22;2922;53.482;10.006;2024-03-17T09:55:39;12.00;99.90
5792;DHT22;2922;53.482;10.006;2024-03-17T09:58:15;12.20;99.90
5792;DHT22;2922;53.482;10.006;2024-03-17T10:00:40;12.50;99.90
5792;DHT22;2922;53.482;10.006;2024-03-17T10:03:06;12.60;99.90
5792;DHT22;2922;53.482;10.006;2024-03-17T10:05:32;12.50;99.90
5792;DHT22;2922;53.482;10.006;2024-03-17T10:07:58;12.30;99.90
5792;DHT22;2922;53.482;10.006;2024-03-17T10:10:23;11.90;99.90
5792;DHT22;2922;53.482;10.006;2024-03-17T10:12:50;12.10;99.90
5792;DHT22;2922;53.482;10.006;2024-03-17T10:15:19;12.20;99.90
5792;DHT22;2922;53.482;10.006;2024-03-17T10:17:46;12.20;99.90
5792;DHT22;2922;53.482;10.006;2024-03-17T10:25:21;12.70;99.90
5792;DHT22;2922;53.482;10.006;2024-03-17T10:27:47;13.10;99.90
5792;DHT22;2922;53.482;10.006;2024-03-17T10:30:18;13.10;99.90
5792;DHT22;2922;53.482;10.006;2024-03-17T10:32:58;13.40;99.90
5792;DHT22;2922;53.482;10.006;2024-03-17T10:35:32;13.50;99.90
5792;DHT22;2922;53.482;10.006;2024-03-17T10:38:02;13.60;99.70
5792;DHT22;2922;53.482;10.006;2024-03-17T10:40:30;13.80;99.20
5792;DHT22;2922;53.482;10.006;2024-03-17T10:42:57;14.00;98.40
5792;DHT22;2922;53.482;10.006;2024-03-17T10:45:23;14.10;95.60
5792;DHT22;2922;53.482;10.006;2024-03-17T10:47:50;14.20;96.50
5792;DHT22;2922;53.482;10.006;2024-03-17T10:50:21;14.40;96.10
5792;DHT22;2922;53.482;10.006;2024-03-17T10:52:49;14.60;97.20
5792;DHT22;2922;53.482;10.006;2024-03-17T10:55:25;14.60;94.00
5792;DHT22;2922;53.482;10.006;2024-03-17T10:57:54;14.60;86.30
5792;DHT22;2922;53.482;10.006;2024-03-17T11:00:24;14.50;82.90
5792;DHT22;2922;53.482;10.006;2024-03-17T11:02:52;14.60;88.70
5792;DHT22;2922;53.482;10.006;2024-03-17T11:05:28;14.50;84.80
5792;DHT22;2922;53.482;10.006;2024-03-17T11:08:00;14.40;77.70
5792;DHT22;2922;53.482;10.006;2024-03-17T11:10:33;14.30;84.90
5792;DHT22;2922;53.482;10.006;2024-03-17T11:13:00;14.30;86.20
5792;DHT22;2922;53.482;10.006;2024-03-17T11:23:02;14.70;83.10
5792;DHT22;2922;53.482;10.006;2024-03-17T11:27:57;14.80;78.70
5792;DHT22;2922;53.482;10.006;2024-03-17T11:35:37;14.70;69.90
5792;DHT22;2922;53.482;10.006;2024-03-17T11:38:03;14.60;71.80
5792;DHT22;2922;53.482;10.006;2024-03-17T11:40:29;14.20;69.90
5792;DHT22;2922;53.482;10.006;2024-03-17T11:43:02;14.30;69.70
5792;DHT22;2922;53.482;10.006;2024-03-17T11:45:27;14.10;63.00
5792;DHT22;2922;53.482;10.006;2024-03-17T11:47:53;14.10;65.70
5792;DHT22;2922;53.482;10.006;2024-03-17T11:50:19;14.30;70.80
5792;DHT22;2922;53.482;10.006;2024-03-17T11:52:44;14.30;68.10
5792;DHT22;2922;53.482;10.006;2024-03-17T11:55:18;13.80;69.00
5792;DHT22;2922;53.482;10.006;2024-03-17T11:57:44;13.60;67.40
5792;DHT22;2922;53.482;10.006;2024-03-17T12:00:21;13.80;72.50
5792;DHT22;2922;53.482;10.006;2024-03-17T12:02:49;13.90;71.40
5792;DHT22;2922;53.482;10.006;2024-03-17T12:05:15;14.10;67.80
5792;DHT22;2922;53.482;10.006;2024-03-17T12:07:44;14.20;65.50
5792;DHT22;2922;53.482;10.006;2024-03-17T12:10:12;14.40;69.10
5792;DHT22;2922;53.482;10.006;2024-03-17T12:12:40;14.60;67.10
5792;DHT22;2922;53.482;10.006;2024-03-17T12:15:26;14.70;67.00
5792;DHT22;2922;53.482;10.006;2024-03-17T12:17:54;14.90;60.40
5792;DHT22;2922;53.482;10.006;2024-03-17T12:20:21;14.90;63.90
5792;DHT22;2922;53.482;10.006;2024-03-17T12:22:47;14.90;65.30
5792;DHT22;2922;53.482;10.006;2024-03-17T12:25:22;15.00;63.30
5792;DHT22;2922;53.482;10.006;2024-03-17T12:27:48;15.00;57.90
5792;DHT22;2922;53.482;10.006;2024-03-17T12:30:15;15.20;62.60
5792;DHT22;2922;53.482;10.006;2024-03-17T12:32:41;15.30;60.00
5792;DHT22;2922;53.482;10.006;2024-03-17T12:35:13;15.40;63.10
5792;DHT22;2922;53.482;10.006;2024-03-17T12:37:39;15.40;58.40
5792;DHT22;2922;53.482;10.006;2024-03-17T12:40:09;15.20;61.90
5792;DHT22;2922;53.482;10.006;2024-03-17T12:42:47;15.40;64.60
5792;DHT22;2922;53.482;10.006;2024-03-17T12:45:13;15.40;60.10
5792;DHT22;2922;53.482;10.006;2024-03-17T12:47:38;15.50;62.10
5792;DHT22;2922;53.482;10.006;2024-03-17T12:50:11;15.50;56.50
5792;DHT22;2922;53.482;10.006;2024-03-17T12:52:40;15.30;53.90
5792;DHT22;2922;53.482;10.006;2024-03-17T12:55:07;15.40;59.50
5792;DHT22;2922;53.482;10.006;2024-03-17T12:58:04;15.60;55.40
5792;DHT22;2922;53.482;10.006;2024-03-17T13:01:05;15.50;58.10
5792;DHT22;2922;53.482;10.006;2024-03-17T13:03:33;15.60;52.70
5792;DHT22;2922;53.482;10.006;2024-03-17T13:06:03;15.50;57.80
5792;DHT22;2922;53.482;10.006;2024-03-17T13:08:29;15.60;54.70
5792;DHT22;2922;53.482;10.006;2024-03-17T13:10:57;15.80;53.30
5792;DHT22;2922;53.482;10.006;2024-03-17T13:13:22;15.80;55.10
5792;DHT22;2922;53.482;10.006;2024-03-17T13:15:48;15.90;54.20
5792;DHT22;2922;53.482;10.006;2024-03-17T13:18:17;16.10;51.80
5792;DHT22;2922;53.482;10.006;2024-03-17T13:20:44;16.20;52.60
5792;DHT22;2922;53.482;10.006;2024-03-17T13:23:10;16.20;49.50
5792;DHT22;2922;53.482;10.006;2024-03-17T13:25:36;16.30;51.50
5792;DHT22;2922;53.482;10.006;2024-03-17T13:28:02;16.10;53.90
5792;DHT22;2922;53.482;10.006;2024-03-17T13:30:29;15.90;51.90
5792;DHT22;2922;53.482;10.006;2024-03-17T13:32:56;16.10;57.20
5792;DHT22;2922;53.482;10.006;2024-03-17T13:35:29;16.10;51.60
5792;DHT22;2922;53.482;10.006;2024-03-17T13:37:57;16.20;50.40
5792;DHT22;2922;53.482;10.006;2024-03-17T13:40:26;16.30;52.60
5792;DHT22;2922;53.482;10.006;2024-03-17T13:42:53;16.40;50.40
5792;DHT22;2922;53.482;10.006;2024-03-17T13:45:20;16.20;49.10
5792;DHT22;2922;53.482;10.006;2024-03-17T13:47:52;16.30;49.00
5792;DHT22;2922;53.482;10.006;2024-03-17T13:50:19;16.40;47.20
5792;DHT22;2922;53.482;10.006;2024-03-17T13:52:44;16.30;49.20
5792;DHT22;2922;53.482;10.006;2024-03-17T13:55:21;16.30;47.50
5792;DHT22;2922;53.482;10.006;2024-03-17T13:57:53;16.10;45.80
5792;DHT22;2922;53.482;10.006;2024-03-17T14:00:26;15.90;47.20
5792;DHT22;2922;53.482;10.006;2024-03-17T14:02:53;15.90;47.20
5792;DHT22;2922;53.482;10.006;2024-03-17T14:05:21;15.90;51.50
5792;DHT22;2922;53.482;10.006;2024-03-17T14:07:47;15.90;48.40
5792;DHT22;2922;53.482;10.006;2024-03-17T14:10:18;15.70;45.30
5792;DHT22;2922;53.482;10.006;2024-03-17T14:12:44;15.70;46.60
5792;DHT22;2922;53.482;10.006;2024-03-17T14:15:11;15.70;45.60
5792;DHT22;2922;53.482;10.006;2024-03-17T14:17:38;15.60;46.30
5792;DHT22;2922;53.482;10.006;2024-03-17T14:20:04;15.60;49.20
5792;DHT22;2922;53.482;10.006;2024-03-17T14:22:31;15.50;45.70
5792;DHT22;2922;53.482;10.006;2024-03-17T14:24:57;15.60;46.70
5792;DHT22;2922;53.482;10.006;2024-03-17T14:27:23;15.60;43.60
5792;DHT22;2922;53.482;10.006;2024-03-17T14:29:49;15.60;44.00
5792;DHT22;2922;53.482;10.006;2024-03-17T14:32:15;15.60;44.90
5792;DHT22;2922;53.482;10.006;2024-03-17T14:34:40;15.60;45.80
5792;DHT22;2922;53.482;10.006;2024-03-17T14:37:06;15.60;48.80
5792;DHT22;2922;53.482;10.006;2024-03-17T14:39:32;15.40;44.90
5792;DHT22;2922;53.482;10.006;2024-03-17T14:41:57;15.20;46.30
5792;DHT22;2922;53.482;10.006;2024-03-17T14:44:23;15.20;46.70
5792;DHT22;2922;53.482;10.006;2024-03-17T14:46:49;15.30;47.30
5792;DHT22;2922;53.482;10.006;2024-03-17T14:49:19;15.20;45.20
5792;DHT22;2922;53.482;10.006;2024-03-17T14:51:45;15.30;47.30
5792;DHT22;2922;53.482;10.006;2024-03-17T14:54:10;15.10;49.70
5792;DHT22;2922;53.482;10.006;2024-03-17T14:56:37;15.00;46.50
5792;DHT22;2922;53.482;10.006;2024-03-17T14:59:03;14.90;50.10
5792;DHT22;2922;53.482;10.006;2024-03-17T15:01:28;14.70;47.10
5792;DHT22;2922;53.482;10.006;2024-03-17T15:03:55;14.60;48.00
5792;DHT22;2922;53.482;10.006;2024-03-17T15:06:21;14.70;49.30
5792;DHT22;2922;53.482;10.006;2024-03-17T15:08:46;14.90;48.50
5792;DHT22;2922;53.482;10.006;2024-03-17T15:11:12;14.80;48.10
5792;DHT22;2922;53.482;10.006;2024-03-17T15:13:37;14.60;52.80
5792;DHT22;2922;53.482;10.006;2024-03-17T15:16:03;14.50;52.80
5792;DHT22;2922;53.482;10.006;2024-03-17T15:18:32;14.40;48.50
5792;DHT22;2922;53.482;10.006;2024-03-17T15:21:02;14.40;47.40
5792;DHT22;2922;53.482;10.006;2024-03-17T15:23:30;14.30;47.50
5792;DHT22;2922;53.482;10.006;2024-03-17T15:26:08;14.10;47.10
5792;DHT22;2922;53.482;10.006;2024-03-17T15:28:40;14.10;48.60
5792;DHT22;2922;53.482;10.006;2024-03-17T15:31:06;14.10;50.30
5792;DHT22;2922;53.482;10.006;2024-03-17T15:33:36;14.10;50.60
5792;DHT22;2922;53.482;10.006;2024-03-17T15:36:03;14.00;51.50
5792;DHT22;2922;53.482;10.006;2024-03-17T15:38:32;13.90;50.10
5792;DHT22;2922;53.482;10.006;2024-03-17T15:41:06;13.90;51.60
5792;DHT22;2922;53.482;10.006;2024-03-17T15:43:33;13.80;51.70
5792;DHT22;2922;53.482;10.006;2024-03-17T15:45:59;13.70;51.00
5792;DHT22;2922;53.482;10.006;2024-03-17T15:48:25;13.70;52.80
5792;DHT22;2922;53.482;10.006;2024-03-17T15:50:55;13.60;53.10
5792;DHT22;2922;53.482;10.006;2024-03-17T15:53:21;13.40;57.40
5792;DHT22;2922;53.482;10.006;2024-03-17T15:55:53;13.40;54.80
5792;DHT22;2922;53.482;10.006;2024-03-17T15:58:19;13.30;53.60
5792;DHT22;2922;53.482;10.006;2024-03-17T16:00:46;13.20;54.30
5792;DHT22;2922;53.482;10.006;2024-03-17T16:03:12;13.20;55.70
5792;DHT22;2922;53.482;10.006;2024-03-17T16:05:38;13.10;54.80
5792;DHT22;2922;53.482;10.006;2024-03-17T16:08:07;13.00;54.10
5792;DHT22;2922;53.482;10.006;2024-03-17T16:10:35;13.00;58.00
5792;DHT22;2922;53.482;10.006;2024-03-17T16:13:00;12.80;60.40
5792;DHT22;2922;53.482;10.006;2024-03-17T16:15:27;12.60;61.30